createdAt,value
2017-09-19T00:00:02.812Z,21.27
2017-09-19T00:00:34.461Z,21.26
2017-09-19T00:01:06.106Z,21.26
2017-09-19T00:01:37.880Z,21.25
2017-09-19T00:02:09.540Z,21.26
2017-09-19T00:02:41.190Z,21.25
2017-09-19T00:03:12.837Z,21.25
2017-09-19T00:03:44.477Z,21.25
2017-09-19T00:04:16.557Z,21.24
2017-09-19T00:04:48.204Z,21.24
2017-09-19T00:05:19.858Z,21.24
2017-09-19T00:05:51.502Z,21.24
2017-09-19T00:06:23.292Z,21.22
2017-09-19T00:06:54.941Z,21.24
2017-09-19T00:07:26.581Z,21.24
2017-09-19T00:07:58.225Z,21.24
2017-09-19T00:08:29.865Z,21.23
2017-09-19T00:09:01.509Z,21.22
2017-09-19T00:09:33.153Z,21.22
2017-09-19T00:10:04.794Z,21.22
2017-09-19T00:10:36.480Z,21.22
2017-09-19T00:11:08.370Z,21.22
2017-09-19T00:11:40.319Z,21.21
2017-09-19T00:12:11.973Z,21.21
2017-09-19T00:12:43.622Z,21.21
2017-09-19T00:13:15.266Z,21.23
2017-09-19T00:13:48.113Z,21.22
2017-09-19T00:14:21.029Z,21.22
2017-09-19T00:14:52.673Z,21.22
2017-09-19T00:15:24.565Z,21.21
2017-09-19T00:15:56.526Z,21.22
2017-09-19T00:16:28.477Z,21.21
2017-09-19T00:17:00.279Z,21.22
2017-09-19T00:17:31.921Z,21.23
2017-09-19T00:18:03.709Z,21.22
2017-09-19T00:18:35.358Z,21.22
2017-09-19T00:19:07.611Z,21.24
2017-09-19T00:19:40.293Z,21.23
2017-09-19T00:20:12.120Z,21.23
2017-09-19T00:20:43.773Z,21.23
2017-09-19T00:21:15.430Z,21.25
2017-09-19T00:21:47.077Z,21.27
2017-09-19T00:22:18.721Z,21.26
2017-09-19T00:22:50.365Z,21.25
2017-09-19T00:23:22.005Z,21.25
2017-09-19T00:23:53.649Z,21.24
2017-09-19T00:24:25.296Z,21.23
2017-09-19T00:24:56.942Z,21.23
2017-09-19T00:25:28.835Z,21.23
2017-09-19T00:26:00.794Z,21.24
2017-09-19T00:26:32.442Z,21.23
2017-09-19T00:27:04.089Z,21.23
2017-09-19T00:27:36.036Z,21.24
2017-09-19T00:28:07.677Z,21.24
2017-09-19T00:28:39.325Z,21.24
2017-09-19T00:29:10.977Z,21.24
2017-09-19T00:29:42.625Z,21.23
2017-09-19T00:30:14.273Z,21.25
2017-09-19T00:30:45.917Z,21.24
2017-09-19T00:31:17.562Z,21.25
2017-09-19T00:31:49.213Z,21.25
2017-09-19T00:32:20.875Z,21.22
2017-09-19T00:32:52.581Z,21.24
2017-09-19T00:33:24.229Z,21.25
2017-09-19T00:33:55.873Z,21.25
2017-09-19T00:34:27.513Z,21.25
2017-09-19T00:34:59.165Z,21.26
2017-09-19T00:35:30.817Z,21.25
2017-09-19T00:36:02.457Z,21.26
2017-09-19T00:36:34.097Z,21.26
2017-09-19T00:37:05.741Z,21.26
2017-09-19T00:37:37.389Z,21.27
2017-09-19T00:38:09.090Z,21.25
2017-09-19T00:38:40.741Z,21.26
2017-09-19T00:39:12.385Z,21.27
2017-09-19T00:39:44.030Z,21.26
2017-09-19T00:40:15.679Z,21.27
2017-09-19T00:40:47.325Z,21.26
2017-09-19T00:41:18.982Z,21.25
2017-09-19T00:41:50.666Z,21.25
2017-09-19T00:42:22.317Z,21.26
2017-09-19T00:42:53.965Z,21.27
2017-09-19T00:43:25.655Z,21.27
2017-09-19T00:43:57.301Z,21.27
2017-09-19T00:44:29.155Z,21.28
2017-09-19T00:45:00.823Z,21.29
2017-09-19T00:45:32.479Z,21.29
2017-09-19T00:46:04.121Z,21.29
2017-09-19T00:46:35.769Z,21.29
2017-09-19T00:47:07.422Z,21.29
2017-09-19T00:47:39.061Z,21.29
2017-09-19T00:48:10.701Z,21.29
2017-09-19T00:48:42.342Z,21.28
2017-09-19T00:49:14.267Z,21.29
2017-09-19T00:49:45.917Z,21.29
2017-09-19T00:50:17.565Z,21.28
2017-09-19T00:50:49.208Z,21.27
2017-09-19T00:51:20.849Z,21.27
2017-09-19T00:51:52.537Z,21.26
2017-09-19T00:52:24.193Z,21.25
2017-09-19T00:52:56.069Z,21.25
2017-09-19T00:53:27.952Z,21.26
2017-09-19T00:53:59.597Z,21.26
2017-09-19T00:54:31.241Z,21.26
2017-09-19T00:55:02.897Z,21.25
2017-09-19T00:55:34.541Z,21.25
2017-09-19T00:56:06.182Z,21.25
2017-09-19T00:56:37.871Z,21.24
2017-09-19T00:57:09.565Z,21.24
2017-09-19T00:57:41.209Z,21.24
2017-09-19T00:58:12.853Z,21.25
2017-09-19T00:58:44.746Z,21.25
2017-09-19T00:59:16.393Z,21.23
2017-09-19T00:59:48.044Z,21.24
2017-09-19T01:00:19.685Z,21.24
2017-09-19T01:00:51.328Z,21.24
2017-09-19T01:01:23.014Z,21.23
2017-09-19T01:01:54.713Z,21.23
2017-09-19T01:02:26.353Z,21.22
2017-09-19T01:02:58.014Z,21.21
2017-09-19T01:03:29.666Z,21.20
2017-09-19T01:04:01.313Z,21.18
2017-09-19T01:04:32.965Z,21.18
2017-09-19T01:05:04.609Z,21.18
2017-09-19T01:05:36.253Z,21.18
2017-09-19T01:06:07.893Z,21.17
2017-09-19T01:06:39.680Z,21.17
2017-09-19T01:07:11.372Z,21.17
2017-09-19T01:07:43.017Z,21.19
2017-09-19T01:08:14.860Z,21.22
2017-09-19T01:08:46.505Z,21.24
2017-09-19T01:09:18.198Z,21.21
2017-09-19T01:09:49.853Z,21.18
2017-09-19T01:10:21.497Z,21.17
2017-09-19T01:10:53.428Z,21.15
2017-09-19T01:11:25.085Z,21.12
2017-09-19T01:11:56.733Z,21.13
2017-09-19T01:12:28.429Z,21.11
2017-09-19T01:13:00.303Z,21.11
2017-09-19T01:13:31.957Z,21.11
2017-09-19T01:14:03.605Z,21.09
2017-09-19T01:14:35.253Z,21.09
2017-09-19T01:15:06.897Z,21.09
2017-09-19T01:15:38.545Z,21.08
2017-09-19T01:16:10.185Z,21.08
2017-09-19T01:16:41.829Z,21.07
2017-09-19T01:17:13.479Z,21.07
2017-09-19T01:17:45.357Z,21.06
2017-09-19T01:18:17.025Z,21.06
2017-09-19T01:18:48.979Z,21.05
2017-09-19T01:19:20.806Z,21.06
2017-09-19T01:19:52.569Z,21.05
2017-09-19T01:20:24.449Z,21.04
2017-09-19T01:20:56.097Z,21.03
2017-09-19T01:21:27.745Z,21.03
2017-09-19T01:21:59.385Z,21.03
2017-09-19T01:22:31.025Z,21.02
2017-09-19T01:23:03.035Z,21.02
2017-09-19T01:23:34.685Z,21.02
2017-09-19T01:24:06.335Z,21.02
2017-09-19T01:24:37.979Z,21.02
2017-09-19T01:25:09.621Z,21.01
2017-09-19T01:25:41.268Z,21.00
2017-09-19T01:26:12.921Z,21.01
2017-09-19T01:26:44.563Z,21.00
2017-09-19T01:27:16.213Z,21.00
2017-09-19T01:27:47.865Z,21.00
2017-09-19T01:28:19.589Z,21.00
2017-09-19T01:28:51.233Z,20.99
2017-09-19T01:29:22.873Z,20.99
2017-09-19T01:29:54.686Z,20.99
2017-09-19T01:30:26.569Z,21.00
2017-09-19T01:30:58.220Z,20.98
2017-09-19T01:31:29.861Z,20.99
2017-09-19T01:32:01.510Z,20.98
2017-09-19T01:32:33.157Z,20.98
2017-09-19T01:33:04.801Z,20.98
2017-09-19T01:33:36.445Z,20.96
2017-09-19T01:34:08.089Z,20.96
2017-09-19T01:34:39.796Z,20.97
2017-09-19T01:35:11.444Z,20.95
2017-09-19T01:35:43.086Z,20.95
2017-09-19T01:36:14.737Z,20.94
2017-09-19T01:36:46.381Z,20.94
2017-09-19T01:37:18.030Z,20.92
2017-09-19T01:37:49.674Z,20.92
2017-09-19T01:38:21.318Z,20.93
2017-09-19T01:38:52.963Z,20.93
2017-09-19T01:39:24.613Z,20.92
2017-09-19T01:39:56.305Z,20.93
2017-09-19T01:40:27.949Z,20.93
2017-09-19T01:40:59.589Z,20.92
2017-09-19T01:41:31.233Z,20.92
2017-09-19T01:42:02.881Z,20.92
2017-09-19T01:42:34.527Z,20.90
2017-09-19T01:43:06.173Z,20.91
2017-09-19T01:43:37.991Z,20.90
2017-09-19T01:44:09.641Z,20.90
2017-09-19T01:44:41.285Z,20.90
2017-09-19T01:45:12.933Z,20.90
2017-09-19T01:45:44.586Z,20.91
2017-09-19T01:46:16.229Z,20.91
2017-09-19T01:46:47.880Z,20.90
2017-09-19T01:47:19.529Z,20.90
2017-09-19T01:47:51.177Z,20.90
2017-09-19T01:48:22.823Z,20.89
2017-09-19T01:48:54.716Z,20.89
2017-09-19T01:49:26.365Z,20.89
2017-09-19T01:49:58.009Z,20.88
2017-09-19T01:50:29.949Z,20.88
2017-09-19T01:51:01.602Z,20.88
2017-09-19T01:51:33.253Z,20.87
2017-09-19T01:52:04.901Z,20.87
2017-09-19T01:52:36.541Z,20.87
2017-09-19T01:53:08.189Z,20.86
2017-09-19T01:53:39.829Z,20.86
2017-09-19T01:54:11.725Z,20.86
2017-09-19T01:54:43.389Z,20.87
2017-09-19T01:55:15.270Z,20.86
2017-09-19T01:55:46.913Z,20.84
2017-09-19T01:56:18.557Z,20.83
2017-09-19T01:56:50.240Z,20.83
2017-09-19T01:57:21.908Z,20.81
2017-09-19T01:57:53.588Z,20.82
2017-09-19T01:58:25.254Z,20.82
2017-09-19T01:58:56.902Z,20.82
2017-09-19T01:59:28.585Z,20.83
2017-09-19T02:00:00.229Z,20.83
2017-09-19T02:00:31.873Z,20.84
2017-09-19T02:01:03.517Z,20.86
2017-09-19T02:01:35.161Z,20.86
2017-09-19T02:02:06.805Z,20.86
2017-09-19T02:02:38.445Z,20.86
2017-09-19T02:03:10.085Z,20.86
2017-09-19T02:03:41.730Z,20.86
2017-09-19T02:04:13.413Z,20.85
2017-09-19T02:04:45.057Z,20.85
2017-09-19T02:05:16.745Z,20.85
2017-09-19T02:05:48.393Z,20.85
2017-09-19T02:06:20.041Z,20.86
2017-09-19T02:06:51.685Z,20.86
2017-09-19T02:07:23.366Z,20.85
2017-09-19T02:07:55.234Z,20.85
2017-09-19T02:08:27.003Z,20.85
2017-09-19T02:08:58.706Z,20.85
2017-09-19T02:09:30.594Z,20.85
2017-09-19T02:10:02.246Z,20.85
2017-09-19T02:10:33.894Z,20.85
2017-09-19T02:11:05.537Z,20.85
2017-09-19T02:11:37.181Z,20.85
2017-09-19T02:12:08.825Z,20.85
2017-09-19T02:12:40.477Z,20.84
2017-09-19T02:13:12.116Z,20.84
2017-09-19T02:13:43.765Z,20.84
2017-09-19T02:14:15.681Z,20.83
2017-09-19T02:14:47.564Z,20.83
2017-09-19T02:15:19.214Z,20.82
2017-09-19T02:15:50.857Z,20.82
2017-09-19T02:16:22.561Z,20.82
2017-09-19T02:16:54.205Z,20.82
2017-09-19T02:17:25.849Z,20.82
2017-09-19T02:17:57.492Z,20.82
2017-09-19T02:18:29.141Z,20.82
2017-09-19T02:19:00.785Z,20.81
2017-09-19T02:19:32.437Z,20.82
2017-09-19T02:20:04.089Z,20.82
2017-09-19T02:20:35.740Z,20.84
2017-09-19T02:21:07.638Z,20.84
2017-09-19T02:21:39.586Z,20.84
2017-09-19T02:22:11.536Z,20.85
2017-09-19T02:22:43.485Z,20.85
2017-09-19T02:23:15.314Z,20.85
2017-09-19T02:23:47.075Z,20.86
2017-09-19T02:24:18.910Z,20.86
2017-09-19T02:24:50.666Z,20.87
2017-09-19T02:25:22.317Z,20.88
2017-09-19T02:25:53.965Z,20.89
2017-09-19T02:26:25.613Z,20.91
2017-09-19T02:26:57.288Z,20.94
2017-09-19T02:27:28.929Z,20.95
2017-09-19T02:28:00.575Z,20.98
2017-09-19T02:28:32.221Z,20.99
2017-09-19T02:29:03.870Z,21.01
2017-09-19T02:29:35.568Z,21.02
2017-09-19T02:30:07.213Z,21.04
2017-09-19T02:30:38.857Z,21.04
2017-09-19T02:31:10.502Z,21.05
2017-09-19T02:31:42.156Z,21.06
2017-09-19T02:32:13.801Z,21.09
2017-09-19T02:32:45.454Z,21.09
2017-09-19T02:33:17.100Z,21.10
2017-09-19T02:33:48.741Z,21.11
2017-09-19T02:34:20.389Z,21.10
2017-09-19T02:34:52.172Z,21.10
2017-09-19T02:35:23.828Z,21.11
2017-09-19T02:35:55.477Z,21.12
2017-09-19T02:36:27.117Z,21.12
2017-09-19T02:36:58.781Z,21.12
2017-09-19T02:37:30.425Z,21.14
2017-09-19T02:38:02.077Z,21.15
2017-09-19T02:38:33.919Z,21.20
2017-09-19T02:39:05.566Z,21.22
2017-09-19T02:39:37.214Z,21.24
2017-09-19T02:40:08.910Z,21.26
2017-09-19T02:40:40.558Z,21.25
2017-09-19T02:41:12.206Z,21.25
2017-09-19T02:41:43.850Z,21.27
2017-09-19T02:42:15.496Z,21.29
2017-09-19T02:42:47.142Z,21.30
2017-09-19T02:43:18.794Z,21.28
2017-09-19T02:43:50.437Z,21.29
2017-09-19T02:44:22.084Z,21.29
2017-09-19T02:44:53.729Z,21.30
2017-09-19T02:45:25.623Z,21.28
2017-09-19T02:45:57.286Z,21.28
2017-09-19T02:46:28.941Z,21.26
2017-09-19T02:47:00.602Z,21.25
2017-09-19T02:47:32.249Z,21.24
2017-09-19T02:48:03.953Z,21.25
2017-09-19T02:48:35.593Z,21.22
2017-09-19T02:49:07.238Z,21.21
2017-09-19T02:49:38.885Z,21.21
2017-09-19T02:50:10.526Z,21.21
2017-09-19T02:50:42.177Z,21.21
2017-09-19T02:51:13.822Z,21.21
2017-09-19T02:51:45.466Z,21.20
2017-09-19T02:52:17.114Z,21.20
2017-09-19T02:52:48.769Z,21.18
2017-09-19T02:53:20.560Z,21.18
2017-09-19T02:53:52.213Z,21.17
2017-09-19T02:54:23.857Z,21.16
2017-09-19T02:54:55.797Z,21.16
2017-09-19T02:55:27.494Z,21.16
2017-09-19T02:55:59.149Z,21.16
2017-09-19T02:56:31.026Z,21.17
2017-09-19T02:57:02.678Z,21.18
2017-09-19T02:57:34.326Z,21.17
2017-09-19T02:58:05.970Z,21.16
2017-09-19T02:58:37.614Z,21.15
2017-09-19T02:59:09.265Z,21.14
2017-09-19T02:59:40.909Z,21.14
2017-09-19T03:00:12.558Z,21.13
2017-09-19T03:00:44.261Z,21.12
2017-09-19T03:01:16.104Z,21.12
2017-09-19T03:01:47.756Z,21.12
2017-09-19T03:02:19.405Z,21.11
2017-09-19T03:02:51.055Z,21.11
2017-09-19T03:03:22.709Z,21.10
2017-09-19T03:03:54.350Z,21.10
2017-09-19T03:04:25.989Z,21.11
2017-09-19T03:04:57.630Z,21.10
2017-09-19T03:05:29.273Z,21.09
2017-09-19T03:06:00.961Z,21.09
2017-09-19T03:06:32.605Z,21.09
2017-09-19T03:07:04.254Z,21.09
2017-09-19T03:07:35.941Z,21.08
2017-09-19T03:08:07.585Z,21.08
2017-09-19T03:08:39.244Z,21.08
2017-09-19T03:09:10.897Z,21.09
2017-09-19T03:09:42.541Z,21.08
2017-09-19T03:10:14.327Z,21.07
2017-09-19T03:10:46.150Z,21.07
2017-09-19T03:11:17.931Z,21.07
2017-09-19T03:11:49.581Z,21.07
2017-09-19T03:12:21.225Z,21.07
2017-09-19T03:12:52.869Z,21.06
2017-09-19T03:13:24.509Z,21.05
2017-09-19T03:13:56.154Z,21.05
2017-09-19T03:14:27.797Z,21.04
2017-09-19T03:14:59.442Z,21.04
2017-09-19T03:15:31.085Z,21.03
2017-09-19T03:16:02.733Z,21.03
2017-09-19T03:16:34.373Z,21.03
2017-09-19T03:17:06.256Z,21.02
2017-09-19T03:17:37.926Z,21.02
2017-09-19T03:18:09.752Z,21.00
2017-09-19T03:18:41.522Z,21.01
2017-09-19T03:19:13.209Z,21.02
2017-09-19T03:19:44.860Z,21.01
2017-09-19T03:20:16.752Z,21.00
2017-09-19T03:20:48.596Z,21.00
2017-09-19T03:21:20.344Z,21.00
2017-09-19T03:21:51.994Z,20.99
2017-09-19T03:22:23.651Z,21.01
2017-09-19T03:22:55.293Z,21.02
2017-09-19T03:23:26.938Z,21.00
2017-09-19T03:23:58.581Z,20.98
2017-09-19T03:24:30.460Z,20.98
2017-09-19T03:25:02.145Z,20.99
2017-09-19T03:25:33.793Z,20.98
2017-09-19T03:26:05.438Z,20.96
2017-09-19T03:26:37.093Z,21.00
2017-09-19T03:27:08.750Z,20.98
2017-09-19T03:27:40.393Z,20.98
2017-09-19T03:28:12.053Z,20.97
2017-09-19T03:28:43.700Z,20.98
2017-09-19T03:29:15.586Z,20.98
2017-09-19T03:29:47.535Z,20.97
2017-09-19T03:30:19.186Z,20.96
2017-09-19T03:30:51.116Z,20.96
2017-09-19T03:31:22.769Z,20.95
2017-09-19T03:31:54.425Z,20.95
2017-09-19T03:32:26.077Z,20.96
2017-09-19T03:32:57.745Z,20.96
2017-09-19T03:33:29.389Z,20.98
2017-09-19T03:34:01.035Z,20.99
2017-09-19T03:34:32.685Z,20.99
2017-09-19T03:35:04.385Z,20.99
2017-09-19T03:35:36.037Z,20.98
2017-09-19T03:36:07.701Z,20.99
2017-09-19T03:36:39.349Z,20.99
2017-09-19T03:37:11.045Z,21.00
2017-09-19T03:37:42.694Z,21.00
2017-09-19T03:38:14.339Z,21.00
2017-09-19T03:38:45.982Z,21.00
2017-09-19T03:39:17.625Z,20.99
2017-09-19T03:39:49.273Z,20.99
2017-09-19T03:40:20.925Z,20.99
2017-09-19T03:40:52.573Z,20.98
2017-09-19T03:41:24.225Z,20.97
2017-09-19T03:41:55.870Z,20.97
2017-09-19T03:42:27.561Z,20.96
2017-09-19T03:42:59.249Z,20.96
2017-09-19T03:43:30.898Z,20.96
2017-09-19T03:44:02.545Z,20.96
2017-09-19T03:44:34.193Z,20.96
2017-09-19T03:45:05.877Z,20.96
2017-09-19T03:45:37.522Z,20.96
2017-09-19T03:46:09.173Z,20.96
2017-09-19T03:46:40.814Z,20.95
2017-09-19T03:47:12.453Z,20.94
2017-09-19T03:47:44.098Z,20.94
2017-09-19T03:48:15.930Z,20.94
2017-09-19T03:48:47.582Z,20.96
2017-09-19T03:49:19.230Z,20.95
2017-09-19T03:49:50.873Z,20.95
2017-09-19T03:50:22.521Z,20.93
2017-09-19T03:50:54.161Z,20.93
2017-09-19T03:51:25.801Z,20.92
2017-09-19T03:51:57.445Z,20.92
2017-09-19T03:52:29.089Z,20.92
2017-09-19T03:53:01.749Z,20.90
2017-09-19T03:53:33.443Z,20.91
2017-09-19T03:54:05.213Z,20.91
2017-09-19T03:54:37.097Z,20.91
2017-09-19T03:55:08.804Z,20.93
2017-09-19T03:55:40.500Z,20.93
2017-09-19T03:56:12.154Z,20.93
2017-09-19T03:56:44.037Z,20.92
2017-09-19T03:57:15.870Z,20.93
2017-09-19T03:57:47.628Z,20.94
2017-09-19T03:58:19.577Z,20.93
2017-09-19T03:58:51.229Z,20.94
2017-09-19T03:59:22.873Z,20.95
2017-09-19T03:59:54.519Z,20.95
2017-09-19T04:00:26.162Z,20.95
2017-09-19T04:00:57.985Z,20.94
2017-09-19T04:01:29.736Z,20.94
2017-09-19T04:02:01.389Z,20.95
2017-09-19T04:02:33.034Z,20.94
2017-09-19T04:03:04.677Z,20.94
2017-09-19T04:03:36.317Z,20.93
2017-09-19T04:04:07.966Z,20.94
2017-09-19T04:04:39.617Z,20.93
2017-09-19T04:05:11.266Z,20.94
2017-09-19T04:05:42.948Z,20.94
2017-09-19T04:06:14.601Z,20.94
2017-09-19T04:06:46.463Z,20.94
2017-09-19T04:07:18.121Z,20.95
2017-09-19T04:07:49.774Z,20.93
2017-09-19T04:08:21.422Z,20.92
2017-09-19T04:08:53.078Z,20.92
2017-09-19T04:09:24.733Z,20.93
2017-09-19T04:09:56.387Z,20.91
2017-09-19T04:10:28.037Z,20.93
2017-09-19T04:10:59.803Z,20.93
2017-09-19T04:11:31.547Z,20.91
2017-09-19T04:12:03.193Z,20.91
2017-09-19T04:12:34.841Z,20.91
2017-09-19T04:13:06.530Z,20.90
2017-09-19T04:13:38.258Z,20.90
2017-09-19T04:14:10.040Z,20.90
2017-09-19T04:14:41.705Z,20.90
2017-09-19T04:15:13.317Z,20.89
2017-09-19T04:15:44.989Z,20.89
2017-09-19T04:16:16.681Z,20.89
2017-09-19T04:16:48.333Z,20.89
2017-09-19T04:17:20.181Z,20.88
2017-09-19T04:17:51.864Z,20.88
2017-09-19T04:18:23.521Z,20.88
2017-09-19T04:18:55.210Z,20.89
2017-09-19T04:19:27.097Z,20.89
2017-09-19T04:19:58.748Z,20.88
2017-09-19T04:20:30.357Z,20.88
2017-09-19T04:21:02.019Z,20.89
2017-09-19T04:21:33.684Z,20.87
2017-09-19T04:22:05.613Z,20.88
2017-09-19T04:22:37.265Z,20.89
2017-09-19T04:23:08.913Z,20.88
2017-09-19T04:23:40.561Z,20.87
2017-09-19T04:24:12.218Z,20.87
2017-09-19T04:24:43.869Z,20.87
2017-09-19T04:25:15.522Z,20.87
2017-09-19T04:25:47.416Z,20.87
2017-09-19T04:26:19.071Z,20.86
2017-09-19T04:26:50.741Z,20.87
2017-09-19T04:27:22.438Z,20.86
2017-09-19T04:27:54.106Z,20.86
2017-09-19T04:28:25.758Z,20.86
2017-09-19T04:28:57.571Z,20.85
2017-09-19T04:29:29.218Z,20.85
2017-09-19T04:30:00.875Z,20.85
2017-09-19T04:30:32.522Z,20.85
2017-09-19T04:31:04.182Z,20.85
2017-09-19T04:31:35.826Z,20.84
2017-09-19T04:32:07.514Z,20.84
2017-09-19T04:32:39.207Z,20.84
2017-09-19T04:33:10.858Z,20.84
2017-09-19T04:33:42.510Z,20.85
2017-09-19T04:34:14.634Z,20.85
2017-09-19T04:34:46.285Z,20.86
2017-09-19T04:35:18.186Z,20.88
2017-09-19T04:35:49.835Z,20.87
2017-09-19T04:36:21.674Z,20.88
2017-09-19T04:36:53.437Z,20.89
2017-09-19T04:37:25.090Z,20.90
2017-09-19T04:37:56.733Z,20.90
2017-09-19T04:38:28.375Z,20.90
2017-09-19T04:39:00.017Z,20.88
2017-09-19T04:39:31.665Z,20.91
2017-09-19T04:40:03.305Z,20.90
2017-09-19T04:40:34.953Z,20.91
2017-09-19T04:41:06.593Z,20.92
2017-09-19T04:41:38.235Z,20.91
2017-09-19T04:42:10.158Z,20.92
2017-09-19T04:42:41.861Z,20.92
2017-09-19T04:43:13.513Z,20.95
2017-09-19T04:43:45.161Z,20.96
2017-09-19T04:44:16.865Z,20.97
2017-09-19T04:44:48.561Z,20.98
2017-09-19T04:45:20.225Z,20.99
2017-09-19T04:45:51.873Z,20.99
2017-09-19T04:46:23.517Z,21.00
2017-09-19T04:46:55.173Z,21.01
2017-09-19T04:47:26.817Z,21.02
2017-09-19T04:47:58.457Z,21.03
2017-09-19T04:48:30.167Z,21.03
2017-09-19T04:49:02.141Z,21.03
2017-09-19T04:49:34.035Z,21.06
2017-09-19T04:50:05.703Z,21.07
2017-09-19T04:50:37.359Z,21.08
2017-09-19T04:51:09.009Z,21.09
2017-09-19T04:51:40.658Z,21.10
2017-09-19T04:52:12.306Z,21.11
2017-09-19T04:52:43.953Z,21.11
2017-09-19T04:53:15.599Z,21.12
2017-09-19T04:53:47.237Z,21.14
2017-09-19T04:54:18.885Z,21.12
2017-09-19T04:54:50.770Z,21.15
2017-09-19T04:55:22.431Z,21.16
2017-09-19T04:55:54.085Z,21.17
2017-09-19T04:56:25.729Z,21.18
2017-09-19T04:56:57.381Z,21.17
2017-09-19T04:57:29.025Z,21.17
2017-09-19T04:58:00.665Z,21.17
2017-09-19T04:58:32.309Z,21.17
2017-09-19T04:59:03.953Z,21.16
2017-09-19T04:59:35.595Z,21.17
2017-09-19T05:00:07.237Z,21.16
2017-09-19T05:00:38.886Z,21.16
2017-09-19T05:01:10.529Z,21.17
2017-09-19T05:01:42.173Z,21.15
2017-09-19T05:02:13.825Z,21.16
2017-09-19T05:02:45.477Z,21.16
2017-09-19T05:03:17.137Z,21.16
2017-09-19T05:03:49.010Z,21.16
2017-09-19T05:04:20.663Z,21.16
2017-09-19T05:04:52.353Z,21.16
2017-09-19T05:05:24.245Z,21.17
2017-09-19T05:05:55.942Z,21.17
2017-09-19T05:06:27.834Z,21.16
2017-09-19T05:06:59.494Z,21.15
2017-09-19T05:07:31.142Z,21.15
2017-09-19T05:08:02.794Z,21.13
2017-09-19T05:08:34.709Z,21.12
2017-09-19T05:09:06.362Z,21.12
2017-09-19T05:09:38.014Z,21.11
2017-09-19T05:10:09.661Z,21.10
2017-09-19T05:10:41.304Z,21.11
2017-09-19T05:11:12.951Z,21.12
2017-09-19T05:11:44.594Z,21.12
2017-09-19T05:12:16.236Z,21.11
2017-09-19T05:12:48.150Z,21.09
2017-09-19T05:13:19.798Z,21.10
2017-09-19T05:13:51.441Z,21.10
2017-09-19T05:14:23.085Z,21.09
2017-09-19T05:14:54.741Z,21.08
2017-09-19T05:15:26.381Z,21.07
2017-09-19T05:15:58.028Z,21.05
2017-09-19T05:16:29.701Z,21.06
2017-09-19T05:17:01.345Z,21.04
2017-09-19T05:17:32.989Z,21.05
2017-09-19T05:18:04.879Z,21.03
2017-09-19T05:18:36.529Z,21.04
2017-09-19T05:19:08.173Z,21.03
2017-09-19T05:19:39.813Z,21.02
2017-09-19T05:20:11.477Z,21.03
2017-09-19T05:20:43.369Z,21.02
2017-09-19T05:21:15.036Z,21.01
2017-09-19T05:21:46.688Z,21.01
2017-09-19T05:22:18.329Z,21.00
2017-09-19T05:22:49.981Z,20.99
2017-09-19T05:23:21.620Z,21.00
2017-09-19T05:23:53.266Z,20.99
2017-09-19T05:24:24.914Z,20.98
2017-09-19T05:24:56.559Z,20.98
2017-09-19T05:25:28.202Z,20.97
2017-09-19T05:26:00.079Z,20.99
2017-09-19T05:26:31.722Z,20.98
2017-09-19T05:27:03.404Z,20.98
2017-09-19T05:27:35.053Z,20.98
2017-09-19T05:28:06.697Z,21.00
2017-09-19T05:28:38.342Z,20.98
2017-09-19T05:29:09.985Z,20.98
2017-09-19T05:29:42.009Z,20.96
2017-09-19T05:30:13.870Z,20.96
2017-09-19T05:30:45.739Z,20.96
2017-09-19T05:31:17.442Z,20.97
2017-09-19T05:31:49.103Z,20.96
2017-09-19T05:32:21.052Z,20.96
2017-09-19T05:32:52.709Z,20.96
2017-09-19T05:33:24.354Z,20.95
2017-09-19T05:33:55.997Z,20.94
2017-09-19T05:34:27.637Z,20.94
2017-09-19T05:34:59.293Z,20.95
2017-09-19T05:35:30.938Z,20.96
2017-09-19T05:36:02.582Z,20.95
2017-09-19T05:36:34.494Z,20.94
2017-09-19T05:37:06.375Z,20.94
2017-09-19T05:37:38.021Z,20.93
2017-09-19T05:38:09.666Z,20.93
2017-09-19T05:38:41.667Z,20.91
2017-09-19T05:39:13.628Z,20.93
2017-09-19T05:39:45.277Z,20.92
2017-09-19T05:40:16.921Z,20.91
2017-09-19T05:40:48.573Z,20.93
2017-09-19T05:41:20.218Z,20.92
2017-09-19T05:41:51.861Z,20.92
2017-09-19T05:42:23.505Z,20.91
2017-09-19T05:42:55.150Z,20.91
2017-09-19T05:43:26.789Z,20.92
2017-09-19T05:43:58.473Z,20.91
2017-09-19T05:44:30.113Z,20.92
2017-09-19T05:45:01.762Z,20.92
2017-09-19T05:45:33.635Z,20.91
2017-09-19T05:46:05.584Z,20.90
2017-09-19T05:46:37.233Z,20.89
2017-09-19T05:47:08.881Z,20.89
2017-09-19T05:47:40.529Z,20.89
2017-09-19T05:48:12.188Z,20.89
2017-09-19T05:48:43.833Z,20.89
2017-09-19T05:49:15.483Z,20.89
2017-09-19T05:49:47.359Z,20.89
2017-09-19T05:50:19.025Z,20.90
2017-09-19T05:50:50.677Z,20.92
2017-09-19T05:51:22.321Z,20.90
2017-09-19T05:51:53.969Z,20.90
2017-09-19T05:52:25.609Z,20.90
2017-09-19T05:52:57.255Z,20.90
2017-09-19T05:53:28.907Z,20.90
2017-09-19T05:54:00.565Z,20.90
2017-09-19T05:54:32.214Z,20.90
2017-09-19T05:55:04.093Z,20.90
2017-09-19T05:55:35.778Z,20.89
2017-09-19T05:56:07.429Z,20.88
2017-09-19T05:56:39.079Z,20.88
2017-09-19T05:57:10.729Z,20.88
2017-09-19T05:57:42.382Z,20.88
2017-09-19T05:58:14.260Z,20.89
2017-09-19T05:58:45.949Z,20.89
2017-09-19T05:59:17.613Z,20.89
2017-09-19T05:59:49.265Z,20.87
2017-09-19T06:00:21.146Z,20.87
2017-09-19T06:00:52.816Z,20.88
2017-09-19T06:01:24.465Z,20.89
2017-09-19T06:01:56.109Z,20.87
2017-09-19T06:02:27.758Z,20.87
2017-09-19T06:02:59.595Z,20.87
2017-09-19T06:03:31.302Z,20.88
2017-09-19T06:04:03.170Z,20.87
2017-09-19T06:04:34.878Z,20.88
2017-09-19T06:05:06.537Z,20.87
2017-09-19T06:05:38.190Z,20.88
2017-09-19T06:06:09.837Z,20.87
2017-09-19T06:06:41.486Z,20.87
2017-09-19T06:07:13.129Z,20.87
2017-09-19T06:07:44.783Z,20.86
2017-09-19T06:08:16.444Z,20.84
2017-09-19T06:08:48.106Z,20.84
2017-09-19T06:09:19.753Z,20.85
2017-09-19T06:09:51.446Z,20.86
2017-09-19T06:10:23.096Z,20.86
2017-09-19T06:10:54.743Z,20.87
2017-09-19T06:11:26.393Z,20.85
2017-09-19T06:11:58.188Z,20.85
2017-09-19T06:12:29.842Z,20.87
2017-09-19T06:13:01.496Z,20.87
2017-09-19T06:13:33.142Z,20.86
2017-09-19T06:14:04.785Z,20.86
2017-09-19T06:14:36.599Z,20.86
2017-09-19T06:15:08.284Z,20.85
2017-09-19T06:15:39.935Z,20.86
2017-09-19T06:16:11.582Z,20.86
2017-09-19T06:16:43.236Z,20.85
2017-09-19T06:17:14.886Z,20.84
2017-09-19T06:17:46.575Z,20.84
2017-09-19T06:18:18.506Z,20.86
2017-09-19T06:18:50.349Z,20.86
2017-09-19T06:19:22.096Z,20.88
2017-09-19T06:19:53.945Z,20.88
2017-09-19T06:20:25.594Z,20.89
2017-09-19T06:20:57.246Z,20.89
2017-09-19T06:21:28.905Z,20.90
2017-09-19T06:22:00.545Z,20.91
2017-09-19T06:22:32.192Z,20.90
2017-09-19T06:23:03.849Z,20.90
2017-09-19T06:23:35.846Z,20.90
2017-09-19T06:24:07.489Z,20.91
2017-09-19T06:24:39.196Z,20.94
2017-09-19T06:25:10.845Z,20.95
2017-09-19T06:25:42.723Z,20.96
2017-09-19T06:26:14.374Z,20.96
2017-09-19T06:26:46.018Z,20.95
2017-09-19T06:27:17.661Z,20.95
2017-09-19T06:27:49.304Z,20.96
2017-09-19T06:28:20.949Z,20.95
2017-09-19T06:28:52.600Z,20.95
2017-09-19T06:29:24.242Z,20.95
2017-09-19T06:29:56.164Z,20.96
2017-09-19T06:30:27.818Z,20.98
2017-09-19T06:30:59.465Z,20.99
2017-09-19T06:31:31.113Z,21.00
2017-09-19T06:32:02.761Z,20.98
2017-09-19T06:32:34.409Z,20.99
2017-09-19T06:33:06.069Z,20.98
2017-09-19T06:33:37.721Z,20.97
2017-09-19T06:34:09.580Z,20.96
2017-09-19T06:34:41.248Z,20.96
2017-09-19T06:35:12.925Z,20.96
2017-09-19T06:35:44.838Z,20.95
2017-09-19T06:36:16.788Z,20.95
2017-09-19T06:36:48.436Z,20.94
2017-09-19T06:37:20.093Z,20.96
2017-09-19T06:37:51.733Z,20.98
2017-09-19T06:38:23.374Z,20.98
2017-09-19T06:38:55.025Z,20.98
2017-09-19T06:39:26.673Z,20.98
2017-09-19T06:39:58.563Z,20.98
2017-09-19T06:40:30.230Z,20.97
2017-09-19T06:41:01.881Z,20.96
2017-09-19T06:41:33.533Z,20.95
2017-09-19T06:42:05.173Z,20.96
2017-09-19T06:42:36.874Z,20.97
2017-09-19T06:43:08.748Z,20.97
2017-09-19T06:43:40.626Z,20.98
2017-09-19T06:44:12.271Z,20.98
2017-09-19T06:44:43.929Z,20.98
2017-09-19T06:45:16.198Z,20.99
2017-09-19T06:45:47.878Z,21.03
2017-09-19T06:46:19.720Z,21.02
2017-09-19T06:46:51.470Z,21.00
2017-09-19T06:47:23.122Z,21.03
2017-09-19T06:47:54.819Z,21.03